Capitol Logistics 5091

Operating for GRZ



PANC
Ted Stevens Anchorage International Airport
Anchorage, Alaska
PHNL
Daniel K Inouye International Airport
Honolulu, Hawaii

Activity Log

Date Flight Route Aircraft Duration
No Flights Yet

Route Details

Aircraft Information
Primary: Boeing 767-300BDSF
Backup: Boeing 747-400BCF
Route Data
Distance: 2413nm
Duration: 6h 04m
Recm'd Route: HOM 5500N/15100W 5000N/15100W 4500N/15100W 4000N/15200W 3500N/15300W 3000N/15400W ZOULU ZIGIE MAGGI3
Origin Wx: PANC 180053Z 00000KT 10SM FEW180 12/M04 A3034 RMK AO2 SLP276 T01171039 VISNO N $
Dest. Wx: PHNL 180053Z 04011G18KT 10SM FEW026 SCT042 SCT065 28/16 A2999 RMK AO2 SLP155 T02780156
Notes: 1X PER WEEK